Time;durP1;ratioP1;P1;durP2;ratioP2;P2;SDS_P1;SDS_P2;PMS_P1;PMS_P2;Temp;Humidity;BMP_temperature;BMP_pressure;BME280_temperature;BME280_humidity;BME280_pressure;Samples;Min_cycle;Max_cycle;Signal;HPM_P1;HPM_P2
2020/12/15 00:01:26;;;;;;;1.00;0.60;;;7.10;99.90;;;;;;5077288;28;20420;-60
2020/12/15 00:03:53;;;;;;;1.00;0.70;;;7.20;99.90;;;;;;5077076;28;20477;-60
2020/12/15 00:06:19;;;;;;;0.90;0.60;;;7.20;99.90;;;;;;5076658;28;20415;-60
2020/12/15 00:08:46;;;;;;;1.35;0.60;;;7.30;99.90;;;;;;5076980;28;20493;-60
2020/12/15 00:11:18;;;;;;;1.60;0.65;;;7.30;99.90;;;;;;5077082;28;20920;-60
2020/12/15 00:13:44;;;;;;;1.10;0.60;;;7.20;99.90;;;;;;5076970;28;20519;-60
2020/12/15 00:16:11;;;;;;;1.00;0.60;;;7.20;99.90;;;;;;5077005;28;20468;-60
2020/12/15 00:18:38;;;;;;;1.10;0.60;;;7.20;99.90;;;;;;5076972;28;20484;-60
2020/12/15 00:21:05;;;;;;;1.30;0.50;;;7.20;99.90;;;;;;5076313;28;20447;-60
2020/12/15 00:23:31;;;;;;;1.00;0.70;;;7.20;99.90;;;;;;5075929;28;20434;-59
2020/12/15 00:25:58;;;;;;;1.00;0.60;;;7.20;99.90;;;;;;5076353;28;20450;-58
2020/12/15 00:28:25;;;;;;;1.10;0.70;;;7.20;99.90;;;;;;5076150;28;20471;-58
2020/12/15 00:30:52;;;;;;;1.20;0.70;;;7.20;99.90;;;;;;5076265;28;20465;-58
2020/12/15 00:33:18;;;;;;;1.20;0.70;;;7.10;99.90;;;;;;5076023;28;20472;-58
2020/12/15 00:35:45;;;;;;;1.80;0.60;;;7.10;99.90;;;;;;5076103;28;20445;-58
2020/12/15 00:38:12;;;;;;;0.95;0.60;;;7.00;99.90;;;;;;5076385;28;20555;-57
2020/12/15 00:40:38;;;;;;;1.30;0.60;;;7.00;99.90;;;;;;5076368;28;20412;-58
2020/12/15 00:43:05;;;;;;;1.75;0.70;;;7.00;99.90;;;;;;5076443;28;20459;-58
2020/12/15 00:45:32;;;;;;;1.10;0.70;;;7.10;99.90;;;;;;5076236;28;20435;-57
2020/12/15 00:47:58;;;;;;;1.67;0.70;;;7.00;99.90;;;;;;5074976;28;20489;-58
2020/12/15 00:50:25;;;;;;;1.10;0.60;;;7.10;99.90;;;;;;5076148;28;20481;-58
2020/12/15 00:52:52;;;;;;;1.60;0.70;;;7.10;99.90;;;;;;5075576;28;20757;-58
2020/12/15 00:55:18;;;;;;;1.23;0.70;;;7.10;99.90;;;;;;5075097;28;20427;-58
2020/12/15 00:57:44;;;;;;;1.60;0.70;;;7.10;99.90;;;;;;5076044;28;20823;-58
2020/12/15 01:00:13;;;;;;;0.93;0.63;;;7.10;99.90;;;;;;5074593;28;20508;-58
2020/12/15 01:02:41;;;;;;;0.90;0.60;;;7.10;99.90;;;;;;5074521;28;20427;-58
2020/12/15 01:05:08;;;;;;;1.02;0.60;;;7.10;99.90;;;;;;5074907;28;20447;-58
2020/12/15 01:07:34;;;;;;;1.10;0.60;;;7.20;99.90;;;;;;5074409;28;20415;-58
2020/12/15 01:10:01;;;;;;;1.00;0.60;;;7.20;99.90;;;;;;5074179;28;20512;-58
2020/12/15 01:12:27;;;;;;;1.10;0.60;;;7.20;99.90;;;;;;5074584;28;20419;-58
2020/12/15 01:14:54;;;;;;;1.00;0.50;;;7.20;99.90;;;;;;5073983;28;20427;-58
2020/12/15 01:17:20;;;;;;;1.00;0.60;;;7.20;99.90;;;;;;5074144;28;20508;-58
2020/12/15 01:19:47;;;;;;;1.10;0.63;;;7.30;99.90;;;;;;5074144;28;20492;-58
2020/12/15 01:22:14;;;;;;;1.00;0.60;;;7.30;99.90;;;;;;5074290;28;20851;-58
2020/12/15 01:24:41;;;;;;;1.30;0.60;;;7.30;99.90;;;;;;5074191;28;20474;-58
2020/12/15 01:27:08;;;;;;;1.20;0.70;;;7.30;99.90;;;;;;5073553;28;20419;-58
2020/12/15 01:29:34;;;;;;;1.00;0.60;;;7.30;99.90;;;;;;5074977;28;20928;-58
2020/12/15 01:32:01;;;;;;;0.93;0.50;;;7.30;99.90;;;;;;5074710;28;20416;-58
2020/12/15 01:34:27;;;;;;;1.02;0.60;;;7.30;99.90;;;;;;5075751;28;20428;-58
2020/12/15 01:36:55;;;;;;;1.40;0.60;;;7.40;99.90;;;;;;5074750;28;20518;-59
2020/12/15 01:39:22;;;;;;;1.10;0.60;;;7.40;99.90;;;;;;5074500;28;20526;-58
2020/12/15 01:41:49;;;;;;;1.35;0.60;;;7.40;99.90;;;;;;5074078;28;20484;-58
2020/12/15 01:44:15;;;;;;;0.90;0.60;;;7.40;99.90;;;;;;5074011;28;20459;-58
2020/12/15 01:46:42;;;;;;;1.00;0.60;;;7.50;99.90;;;;;;5073296;28;20419;-58
2020/12/15 01:49:09;;;;;;;0.90;0.60;;;7.50;99.90;;;;;;5073362;28;20936;-58
2020/12/15 01:51:36;;;;;;;0.90;0.60;;;7.50;99.90;;;;;;5074488;28;20420;-58
2020/12/15 01:54:04;;;;;;;1.08;0.50;;;7.50;99.90;;;;;;5074480;28;20517;-59
2020/12/15 01:56:30;;;;;;;1.30;0.60;;;7.50;99.90;;;;;;5074035;28;20449;-58
2020/12/15 01:58:58;;;;;;;0.90;0.60;;;7.60;99.90;;;;;;5074677;28;20731;-58
2020/12/15 02:01:26;;;;;;;0.93;0.50;;;7.70;99.90;;;;;;5074578;28;20477;-58
2020/12/15 02:03:53;;;;;;;1.58;0.60;;;7.70;99.90;;;;;;5074122;28;20480;-58
2020/12/15 02:06:20;;;;;;;1.00;0.60;;;7.70;99.90;;;;;;5074696;28;20415;-59
2020/12/15 02:08:47;;;;;;;0.90;0.50;;;7.70;99.90;;;;;;5074932;28;20442;-59
2020/12/15 02:11:15;;;;;;;1.20;0.50;;;7.70;99.90;;;;;;5074952;28;20455;-59
2020/12/15 02:13:42;;;;;;;1.30;0.60;;;7.70;99.90;;;;;;5075064;28;20754;-58
2020/12/15 02:16:10;;;;;;;0.90;0.60;;;7.70;99.90;;;;;;5073931;28;20469;-59
2020/12/15 02:18:37;;;;;;;0.82;0.60;;;7.60;99.90;;;;;;5075025;28;20419;-59
2020/12/15 02:21:04;;;;;;;0.95;0.60;;;7.70;99.90;;;;;;5074117;28;20477;-59
2020/12/15 02:23:32;;;;;;;1.90;0.60;;;7.70;99.90;;;;;;5075082;28;20423;-59
2020/12/15 02:25:59;;;;;;;1.30;0.70;;;7.70;99.90;;;;;;5074679;28;20504;-59
2020/12/15 02:28:26;;;;;;;1.10;0.60;;;7.70;99.90;;;;;;5074358;28;20839;-58
2020/12/15 02:30:52;;;;;;;1.40;0.70;;;7.70;99.90;;;;;;5074728;28;20416;-59
2020/12/15 02:33:19;;;;;;;0.80;0.50;;;7.70;99.90;;;;;;5074736;28;20905;-59
2020/12/15 02:35:45;;;;;;;0.82;0.60;;;7.70;99.90;;;;;;5074744;28;20509;-59
2020/12/15 02:38:12;;;;;;;1.27;0.60;;;7.70;99.90;;;;;;5074200;28;20465;-59
2020/12/15 02:40:39;;;;;;;1.20;0.50;;;7.70;99.90;;;;;;5074691;28;20433;-59
2020/12/15 02:43:06;;;;;;;1.50;0.60;;;7.80;99.90;;;;;;5076345;28;20488;-59
2020/12/15 02:45:32;;;;;;;1.00;0.63;;;7.90;99.90;;;;;;5078413;28;20531;-59
2020/12/15 02:47:58;;;;;;;1.17;0.70;;;7.90;99.90;;;;;;5077982;28;20431;-59
2020/12/15 02:50:26;;;;;;;1.40;0.65;;;7.80;99.90;;;;;;5078354;28;20423;-59
2020/12/15 02:52:52;;;;;;;1.00;0.60;;;7.70;99.90;;;;;;5078618;28;20481;-60
2020/12/15 02:55:19;;;;;;;0.98;0.60;;;7.80;99.90;;;;;;5078846;28;20423;-59
2020/12/15 02:57:49;;;;;;;0.93;0.60;;;7.80;99.90;;;;;;5078295;28;20415;-60
2020/12/15 03:00:17;;;;;;;1.20;0.60;;;7.80;99.90;;;;;;5078383;28;20480;-59
2020/12/15 03:02:46;;;;;;;1.58;0.90;;;7.90;99.90;;;;;;5078413;28;20847;-59
2020/12/15 03:05:13;;;;;;;1.63;0.80;;;7.80;99.90;;;;;;5078862;28;20423;-59
2020/12/15 03:07:39;;;;;;;1.40;0.70;;;7.80;99.90;;;;;;5078423;28;20454;-59
2020/12/15 03:10:07;;;;;;;2.35;0.88;;;7.80;99.90;;;;;;5078407;28;20500;-59
2020/12/15 03:12:33;;;;;;;2.42;1.10;;;7.80;99.90;;;;;;5078127;28;20439;-59
2020/12/15 03:15:01;;;;;;;2.60;0.97;;;7.60;99.90;;;;;;5078251;28;20423;-58
2020/12/15 03:17:27;;;;;;;2.20;1.00;;;7.70;99.90;;;;;;5077954;28;20904;-59
2020/12/15 03:19:54;;;;;;;2.08;0.90;;;7.70;99.90;;;;;;5078039;28;20509;-59
2020/12/15 03:22:20;;;;;;;1.30;0.80;;;7.30;99.90;;;;;;5077928;28;20831;-59
2020/12/15 03:24:47;;;;;;;1.90;0.80;;;7.00;99.90;;;;;;5078125;28;20423;-59
2020/12/15 03:27:13;;;;;;;2.70;1.00;;;7.00;99.90;;;;;;5078406;28;20415;-59
2020/12/15 03:29:40;;;;;;;1.23;0.70;;;7.30;99.90;;;;;;5078071;28;20431;-58
2020/12/15 03:32:08;;;;;;;1.50;0.80;;;7.20;99.90;;;;;;5077885;28;20412;-58
2020/12/15 03:34:34;;;;;;;1.40;0.90;;;7.10;99.90;;;;;;5077857;28;20540;-58
2020/12/15 03:37:01;;;;;;;1.70;0.90;;;7.10;99.90;;;;;;5076820;28;20427;-59
2020/12/15 03:39:27;;;;;;;1.27;0.80;;;7.30;99.90;;;;;;5076431;28;20455;-59
2020/12/15 03:41:54;;;;;;;1.50;0.90;;;7.50;99.90;;;;;;5076277;28;20827;-59
2020/12/15 03:44:22;;;;;;;1.70;0.80;;;7.60;99.90;;;;;;5076502;28;20518;-59
2020/12/15 03:46:49;;;;;;;1.58;0.80;;;7.70;99.90;;;;;;5076579;28;20880;-59
2020/12/15 03:49:16;;;;;;;1.50;0.80;;;7.70;99.90;;;;;;5076221;28;20774;-59
2020/12/15 03:51:43;;;;;;;1.50;0.80;;;7.50;99.90;;;;;;5075016;28;20816;-59
2020/12/15 03:54:09;;;;;;;1.10;0.60;;;7.50;99.90;;;;;;5075097;28;20492;-58
2020/12/15 03:56:36;;;;;;;1.10;0.60;;;7.40;99.90;;;;;;5075994;28;20419;-58
2020/12/15 03:59:02;;;;;;;0.93;0.50;;;7.50;99.90;;;;;;5075829;28;20901;-59
2020/12/15 04:01:29;;;;;;;1.00;0.50;;;7.50;99.90;;;;;;5075845;28;20423;-58
2020/12/15 04:03:55;;;;;;;0.90;0.60;;;7.50;99.90;;;;;;5075997;28;20423;-58
2020/12/15 04:06:23;;;;;;;1.00;0.60;;;7.50;99.90;;;;;;5076038;28;21005;-58
2020/12/15 04:08:49;;;;;;;1.00;0.60;;;7.60;99.90;;;;;;5076043;28;20436;-59
2020/12/15 04:11:16;;;;;;;1.33;0.70;;;7.60;99.90;;;;;;5075652;28;20462;-58
2020/12/15 04:13:42;;;;;;;1.52;0.60;;;7.50;99.90;;;;;;5076130;28;20428;-58
2020/12/15 04:16:09;;;;;;;1.50;0.60;;;7.50;99.90;;;;;;5075220;28;20415;-59
2020/12/15 04:18:35;;;;;;;1.00;0.70;;;7.50;99.90;;;;;;5074160;28;20424;-58
2020/12/15 04:21:02;;;;;;;1.13;0.60;;;7.50;99.90;;;;;;5074132;28;20633;-58
2020/12/15 04:23:29;;;;;;;1.60;0.70;;;7.50;99.90;;;;;;5074442;28;20770;-59
2020/12/15 04:25:57;;;;;;;1.02;0.63;;;7.50;99.90;;;;;;5074301;28;20419;-58
2020/12/15 04:28:24;;;;;;;1.30;0.60;;;7.30;99.90;;;;;;5073881;28;20439;-59
2020/12/15 04:30:50;;;;;;;1.10;0.70;;;7.30;99.90;;;;;;5073718;28;20715;-59
2020/12/15 04:33:17;;;;;;;0.95;0.60;;;7.20;99.90;;;;;;5074353;28;20416;-58
2020/12/15 04:35:43;;;;;;;1.20;0.60;;;7.20;99.90;;;;;;5026300;28;1382487;-59
2020/12/15 04:38:11;;;;;;;1.10;0.60;;;7.30;99.90;;;;;;5076030;28;20404;-58
2020/12/15 04:40:39;;;;;;;1.00;0.60;;;7.30;99.90;;;;;;5076449;28;20424;-58
2020/12/15 04:43:08;;;;;;;1.30;0.60;;;7.30;99.90;;;;;;5076384;28;20419;-58
2020/12/15 04:45:35;;;;;;;1.30;0.50;;;7.40;99.90;;;;;;5076611;28;20903;-59
2020/12/15 04:48:05;;;;;;;0.90;0.50;;;7.50;99.90;;;;;;5076289;28;20834;-58
2020/12/15 04:50:38;;;;;;;0.70;0.50;;;7.70;99.90;;;;;;5076234;28;20419;-58
2020/12/15 04:53:09;;;;;;;0.80;0.50;;;7.80;99.90;;;;;;5076090;28;20419;-58
2020/12/15 04:55:36;;;;;;;1.00;0.60;;;7.80;99.90;;;;;;5076422;28;20427;-59
2020/12/15 04:58:04;;;;;;;0.80;0.50;;;7.80;99.90;;;;;;5076109;28;20431;-58
2020/12/15 05:00:32;;;;;;;1.00;0.60;;;7.70;99.90;;;;;;5075843;28;20423;-59
2020/12/15 05:03:00;;;;;;;0.85;0.60;;;7.60;99.90;;;;;;5075815;28;20850;-59
2020/12/15 05:05:27;;;;;;;1.00;0.50;;;7.60;99.90;;;;;;5075499;28;20435;-59
2020/12/15 05:07:54;;;;;;;1.00;0.60;;;7.60;99.90;;;;;;5075965;28;20419;-59
2020/12/15 05:10:21;;;;;;;1.50;0.60;;;7.60;99.90;;;;;;5075855;28;20712;-59
2020/12/15 05:12:48;;;;;;;0.98;0.50;;;7.50;99.90;;;;;;5075801;28;20458;-59
2020/12/15 05:15:17;;;;;;;1.02;0.60;;;7.50;99.90;;;;;;5076488;28;20481;-59
2020/12/15 05:17:44;;;;;;;0.90;0.60;;;7.50;99.90;;;;;;5075512;28;20470;-59
2020/12/15 05:20:15;;;;;;;1.27;0.50;;;7.50;99.90;;;;;;5075495;28;20505;-60
2020/12/15 05:22:43;;;;;;;1.60;0.60;;;7.50;99.90;;;;;;5075572;28;20858;-61
2020/12/15 05:25:20;;;;;;;1.10;0.50;;;7.50;99.90;;;;;;5075591;28;20423;-59
2020/12/15 05:27:46;;;;;;;0.80;0.50;;;7.50;99.90;;;;;;5075562;28;20419;-59
2020/12/15 05:30:14;;;;;;;1.00;0.60;;;7.70;99.90;;;;;;5075194;28;20482;-59
2020/12/15 05:32:49;;;;;;;1.40;0.70;;;8.00;99.90;;;;;;5075615;28;20419;-59
2020/12/15 05:35:22;;;;;;;0.85;0.60;;;8.00;99.90;;;;;;5075215;28;20439;-59
2020/12/15 05:37:49;;;;;;;1.13;0.70;;;8.00;99.90;;;;;;5074947;28;20788;-58
2020/12/15 05:40:15;;;;;;;1.20;0.60;;;7.90;99.90;;;;;;5075444;28;20908;-59
2020/12/15 05:42:42;;;;;;;1.40;0.55;;;8.00;99.90;;;;;;5075198;28;20762;-59
2020/12/15 05:45:09;;;;;;;1.00;0.60;;;8.00;99.90;;;;;;5074614;28;20449;-59
2020/12/15 05:47:35;;;;;;;1.00;0.60;;;8.10;99.90;;;;;;5074790;28;20478;-59
2020/12/15 05:50:03;;;;;;;0.98;0.60;;;8.20;99.90;;;;;;5074640;28;20493;-58
2020/12/15 05:52:29;;;;;;;0.90;0.52;;;8.20;99.90;;;;;;5074431;28;20540;-59
2020/12/15 05:55:06;;;;;;;1.40;0.70;;;8.20;99.90;;;;;;5074450;28;20427;-59
2020/12/15 05:57:33;;;;;;;2.80;1.00;;;8.30;99.90;;;;;;5074422;28;20416;-59
2020/12/15 06:00:10;;;;;;;1.80;1.00;;;8.30;99.90;;;;;;5074754;28;20455;-60
2020/12/15 06:02:36;;;;;;;2.20;1.00;;;8.10;99.90;;;;;;5074290;28;20419;-59
2020/12/15 06:05:05;;;;;;;2.35;1.30;;;8.10;99.90;;;;;;5074826;28;20481;-60
2020/12/15 06:07:33;;;;;;;2.00;1.00;;;8.20;99.90;;;;;;5074959;28;20427;-59
2020/12/15 06:09:59;;;;;;;3.50;1.10;;;8.30;99.90;;;;;;5074500;28;20518;-59
2020/12/15 06:12:26;;;;;;;1.40;0.90;;;8.40;99.90;;;;;;5073641;28;20426;-58
2020/12/15 06:14:53;;;;;;;1.80;0.80;;;8.30;99.90;;;;;;5074458;28;20446;-59
2020/12/15 06:17:21;;;;;;;1.50;0.80;;;8.20;99.90;;;;;;5074066;28;20566;-59
2020/12/15 06:19:51;;;;;;;1.90;0.90;;;8.10;99.90;;;;;;5073642;28;20424;-59
2020/12/15 06:22:21;;;;;;;1.50;0.80;;;8.00;99.90;;;;;;5074194;28;20726;-59
2020/12/15 06:24:55;;;;;;;1.50;0.93;;;8.00;99.90;;;;;;5072567;28;20708;-59
2020/12/15 06:27:30;;;;;;;1.90;1.02;;;8.00;99.90;;;;;;5071961;28;20716;-59
2020/12/15 06:29:56;;;;;;;3.00;1.00;;;8.10;99.90;;;;;;5072358;28;20443;-59
2020/12/15 06:32:23;;;;;;;2.47;1.17;;;8.30;99.90;;;;;;5071703;28;20562;-59
2020/12/15 06:34:50;;;;;;;1.70;0.90;;;8.40;99.90;;;;;;5069904;28;20655;-59
2020/12/15 06:37:20;;;;;;;1.60;1.00;;;8.20;99.90;;;;;;5070150;28;20427;-59
2020/12/15 06:39:55;;;;;;;1.13;0.90;;;8.10;99.90;;;;;;5072335;28;20419;-59
2020/12/15 06:42:22;;;;;;;1.30;0.98;;;8.10;99.90;;;;;;5072667;28;20458;-59
2020/12/15 06:45:00;;;;;;;1.50;1.00;;;8.10;99.90;;;;;;5072929;28;20427;-59
2020/12/15 06:47:27;;;;;;;1.67;0.80;;;8.10;99.90;;;;;;5073197;28;20755;-59
2020/12/15 06:49:54;;;;;;;1.25;0.80;;;8.10;99.90;;;;;;5070678;28;21049;-59
2020/12/15 06:52:30;;;;;;;1.00;0.60;;;8.10;99.90;;;;;;5071615;28;20835;-59
2020/12/15 06:54:57;;;;;;;2.20;0.70;;;7.90;99.90;;;;;;5072161;28;20459;-59
2020/12/15 06:57:32;;;;;;;1.00;0.70;;;7.80;99.90;;;;;;5070692;28;20427;-59
2020/12/15 07:00:00;;;;;;;1.10;0.60;;;7.70;99.90;;;;;;5051912;28;20896;-59
2020/12/15 07:02:31;;;;;;;1.00;0.60;;;7.70;99.90;;;;;;5072212;28;20514;-59
2020/12/15 07:05:16;;;;;;;2.10;0.70;;;7.80;99.90;;;;;;5073393;28;20458;-61
2020/12/15 07:07:54;;;;;;;2.03;0.70;;;7.80;99.90;;;;;;5072614;28;20478;-60
2020/12/15 07:10:22;;;;;;;1.10;0.70;;;7.70;99.90;;;;;;5073544;28;20435;-60
2020/12/15 07:12:50;;;;;;;4.05;1.20;;;7.60;99.90;;;;;;5073239;28;20431;-59
2020/12/15 07:15:17;;;;;;;8.20;4.50;;;7.60;99.90;;;;;;5072365;28;20928;-59
2020/12/15 07:17:45;;;;;;;2.83;1.20;;;7.50;99.90;;;;;;5070833;28;20469;-60
2020/12/15 07:20:12;;;;;;;1.60;0.80;;;7.50;99.90;;;;;;5071708;28;20840;-59
2020/12/15 07:22:40;;;;;;;1.00;0.70;;;7.50;99.90;;;;;;5072028;28;20469;-58
2020/12/15 07:25:08;;;;;;;1.30;0.70;;;7.50;99.90;;;;;;5071279;28;20431;-59
2020/12/15 07:27:36;;;;;;;1.30;0.70;;;7.60;99.90;;;;;;5069533;28;20427;-59
2020/12/15 07:30:07;;;;;;;1.90;0.80;;;7.60;99.90;;;;;;5074059;28;20435;-58
2020/12/15 07:32:36;;;;;;;1.63;0.70;;;7.60;99.90;;;;;;5074798;28;20827;-59
2020/12/15 07:35:05;;;;;;;2.00;0.77;;;7.60;99.90;;;;;;5074900;28;20431;-59
2020/12/15 07:37:34;;;;;;;1.92;0.70;;;7.80;99.90;;;;;;5075495;28;20430;-59
2020/12/15 07:40:03;;;;;;;1.30;0.60;;;8.00;99.90;;;;;;5075709;28;20427;-59
2020/12/15 07:42:31;;;;;;;2.30;0.80;;;8.30;99.90;;;;;;5075326;28;20468;-59
2020/12/15 07:44:59;;;;;;;1.58;0.80;;;8.50;99.90;;;;;;5075510;28;20427;-59
2020/12/15 07:47:26;;;;;;;1.90;0.70;;;8.50;99.90;;;;;;5076229;28;20422;-59
2020/12/15 07:49:54;;;;;;;1.45;0.75;;;8.50;99.90;;;;;;5075974;28;20493;-60
2020/12/15 07:52:31;;;;;;;1.80;0.80;;;8.50;99.90;;;;;;5075479;28;20474;-60
2020/12/15 07:55:09;;;;;;;1.20;0.80;;;8.30;99.90;;;;;;5074797;28;20431;-59
2020/12/15 07:57:38;;;;;;;1.15;0.80;;;8.20;99.90;;;;;;5075012;28;20427;-59
2020/12/15 08:00:11;;;;;;;1.80;0.80;;;8.10;99.90;;;;;;5076147;28;20427;-59
2020/12/15 08:02:38;;;;;;;1.55;1.00;;;8.00;99.90;;;;;;5076313;28;20454;-62
2020/12/15 08:05:13;;;;;;;1.10;0.65;;;7.90;99.90;;;;;;5075503;28;20478;-59
2020/12/15 08:07:46;;;;;;;1.30;0.80;;;8.00;99.90;;;;;;5073456;28;20470;-59
2020/12/15 08:10:13;;;;;;;1.10;0.70;;;8.10;99.90;;;;;;5071452;28;20434;-58
2020/12/15 08:12:42;;;;;;;1.40;0.70;;;8.30;99.90;;;;;;5071599;28;20419;-59
2020/12/15 08:15:09;;;;;;;1.30;0.80;;;8.30;99.90;;;;;;5052348;28;20421;-59
2020/12/15 08:17:38;;;;;;;1.30;0.80;;;8.40;99.90;;;;;;5055603;28;20653;-60
2020/12/15 08:20:07;;;;;;;2.38;0.80;;;8.40;99.90;;;;;;5071846;28;20439;-59
2020/12/15 08:22:38;;;;;;;1.63;0.90;;;8.40;99.90;;;;;;5073140;28;20874;-59
2020/12/15 08:25:04;;;;;;;2.55;0.85;;;8.30;99.90;;;;;;5073247;28;20467;-59
2020/12/15 08:27:34;;;;;;;1.70;0.70;;;8.30;99.90;;;;;;5072739;28;20445;-59
2020/12/15 08:30:13;;;;;;;1.20;0.80;;;8.30;99.90;;;;;;5073421;28;20791;-60
2020/12/15 08:32:44;;;;;;;1.17;0.80;;;8.40;99.90;;;;;;5073003;28;20419;-59
2020/12/15 08:35:11;;;;;;;1.60;0.90;;;8.30;99.90;;;;;;5073027;28;20849;-59
2020/12/15 08:37:38;;;;;;;1.50;0.80;;;8.20;99.90;;;;;;5086566;28;20741;-58
2020/12/15 08:40:07;;;;;;;4.40;2.80;;;8.20;99.90;;;;;;5076818;28;20712;-60
2020/12/15 08:42:34;;;;;;;1.10;0.70;;;8.20;99.90;;;;;;5073162;28;20416;-60
2020/12/15 08:45:12;;;;;;;2.00;0.80;;;8.10;99.90;;;;;;5072976;28;20854;-58
2020/12/15 08:47:43;;;;;;;2.30;0.90;;;8.20;99.90;;;;;;5072233;28;20482;-58
2020/12/15 08:50:11;;;;;;;1.20;0.70;;;8.10;99.90;;;;;;5072229;28;20480;-58
2020/12/15 08:52:44;;;;;;;3.17;0.80;;;8.10;99.90;;;;;;5073677;28;20515;-59
2020/12/15 08:55:11;;;;;;;1.50;0.90;;;8.20;99.90;;;;;;5073712;28;20516;-59
2020/12/15 08:57:38;;;;;;;1.33;0.80;;;8.20;99.90;;;;;;5064776;28;20426;-58
2020/12/15 09:00:16;;;;;;;1.40;0.75;;;8.20;99.90;;;;;;5073114;28;20436;-58
2020/12/15 09:02:43;;;;;;;2.13;0.80;;;8.20;99.90;;;;;;5073278;28;20751;-57
2020/12/15 09:05:11;;;;;;;3.70;0.80;;;8.20;99.90;;;;;;5073637;28;20427;-58
2020/12/15 09:07:38;;;;;;;1.20;0.70;;;8.20;99.90;;;;;;5072107;28;20428;-59
2020/12/15 09:10:13;;;;;;;1.20;0.70;;;8.20;99.90;;;;;;5073947;28;20443;-58
2020/12/15 09:12:43;;;;;;;1.40;0.60;;;8.30;99.90;;;;;;5064562;28;20424;-59
2020/12/15 09:15:10;;;;;;;1.48;0.80;;;8.40;99.90;;;;;;5074960;28;20435;-59
2020/12/15 09:17:39;;;;;;;1.15;0.60;;;8.40;99.90;;;;;;5071540;28;20424;-60
2020/12/15 09:20:08;;;;;;;1.30;0.70;;;8.50;99.90;;;;;;5071320;28;20485;-60
2020/12/15 09:22:37;;;;;;;1.20;0.67;;;8.60;99.90;;;;;;5063029;28;20428;-59
2020/12/15 09:25:12;;;;;;;2.17;0.70;;;8.60;99.90;;;;;;5080343;28;20737;-56
2020/12/15 09:27:39;;;;;;;1.30;0.80;;;8.70;99.90;;;;;;5077510;28;20499;-60
2020/12/15 09:30:06;;;;;;;1.20;0.80;;;8.60;99.90;;;;;;5077196;28;20463;-56
2020/12/15 09:32:33;;;;;;;1.40;0.73;;;8.60;99.90;;;;;;5074231;28;20838;-56
2020/12/15 09:35:01;;;;;;;2.55;0.77;;;8.60;99.90;;;;;;5078381;28;20441;-57
2020/12/15 09:37:27;;;;;;;1.00;0.70;;;8.60;99.90;;;;;;5079681;28;20603;-57
2020/12/15 09:39:54;;;;;;;1.42;0.80;;;8.60;99.90;;;;;;5085358;28;20429;-59
2020/12/15 09:42:23;;;;;;;1.02;0.70;;;8.70;99.90;;;;;;5090873;28;20910;-59
2020/12/15 09:44:50;;;;;;;1.08;0.70;;;8.70;99.90;;;;;;5084095;28;20448;-59
2020/12/15 09:47:17;;;;;;;1.52;0.80;;;8.90;99.90;;;;;;5072956;28;20423;-58
2020/12/15 09:49:44;;;;;;;2.78;1.08;;;8.90;99.90;;;;;;5073571;28;20463;-59
2020/12/15 09:52:11;;;;;;;3.22;1.30;;;9.10;99.90;;;;;;5071524;28;20847;-63
2020/12/15 09:54:38;;;;;;;2.50;1.10;;;9.10;99.90;;;;;;5078288;28;20440;-64
2020/12/15 09:57:05;;;;;;;2.10;1.20;;;9.10;99.90;;;;;;5072874;28;20775;-64
2020/12/15 09:59:32;;;;;;;2.42;1.20;;;9.00;99.90;;;;;;5067285;28;20431;-65
2020/12/15 10:01:59;;;;;;;2.60;1.10;;;9.00;99.90;;;;;;5072679;28;20739;-66
2020/12/15 10:04:26;;;;;;;3.28;1.20;;;9.10;99.90;;;;;;5072469;28;20427;-62
2020/12/15 10:06:53;;;;;;;1.52;0.90;;;9.20;99.90;;;;;;5080679;28;20429;-61
2020/12/15 10:09:20;;;;;;;1.63;0.90;;;9.20;99.90;;;;;;5091606;28;20430;-61
2020/12/15 10:11:46;;;;;;;2.45;0.80;;;9.30;99.90;;;;;;5078623;28;20450;-60
2020/12/15 10:14:13;;;;;;;1.48;0.80;;;9.20;99.90;;;;;;5083734;28;20437;-60
2020/12/15 10:16:40;;;;;;;2.00;0.90;;;9.10;99.90;;;;;;5090749;28;20413;-60
2020/12/15 10:19:08;;;;;;;1.50;0.80;;;9.20;99.90;;;;;;5078601;28;20515;-60
2020/12/15 10:21:36;;;;;;;3.30;0.90;;;9.10;99.90;;;;;;5073006;28;20427;-60
2020/12/15 10:24:02;;;;;;;1.20;0.82;;;9.10;99.90;;;;;;5069775;28;20441;-60
2020/12/15 10:26:30;;;;;;;1.42;0.82;;;9.00;99.90;;;;;;5088815;28;20433;-61
2020/12/15 10:28:57;;;;;;;2.60;0.90;;;9.00;99.90;;;;;;5085969;28;20555;-61
2020/12/15 10:31:24;;;;;;;1.60;0.90;;;9.10;99.90;;;;;;5087664;28;20437;-60
2020/12/15 10:33:51;;;;;;;1.70;0.90;;;9.10;99.90;;;;;;5070912;28;20439;-61
2020/12/15 10:36:18;;;;;;;1.48;0.80;;;9.10;99.90;;;;;;5074038;28;20455;-60
2020/12/15 10:38:45;;;;;;;1.48;0.90;;;9.10;99.90;;;;;;5053222;28;20425;-60
2020/12/15 10:41:12;;;;;;;2.70;1.00;;;9.20;99.90;;;;;;5053479;28;20574;-61
2020/12/15 10:43:39;;;;;;;1.60;0.90;;;9.20;99.90;;;;;;5050364;28;20456;-61
2020/12/15 10:46:06;;;;;;;2.70;1.08;;;9.20;99.90;;;;;;5052170;28;20461;-61
2020/12/15 10:48:34;;;;;;;1.80;1.00;;;9.30;99.90;;;;;;5088943;28;20432;-64
2020/12/15 10:51:01;;;;;;;1.90;1.00;;;9.30;99.90;;;;;;5078582;28;20897;-59
2020/12/15 10:53:28;;;;;;;1.63;0.90;;;9.30;99.90;;;;;;5072614;28;20431;-61
2020/12/15 10:55:54;;;;;;;2.45;1.00;;;9.30;99.90;;;;;;5069949;28;20423;-59
2020/12/15 10:58:21;;;;;;;1.70;0.90;;;9.30;99.90;;;;;;5071884;28;20427;-60
2020/12/15 11:00:48;;;;;;;1.70;0.93;;;9.30;99.90;;;;;;5083243;28;20418;-60
2020/12/15 11:03:15;;;;;;;2.13;1.00;;;9.30;99.90;;;;;;5086094;28;20924;-60
2020/12/15 11:05:41;;;;;;;1.60;1.00;;;9.30;99.90;;;;;;5075319;28;20429;-62
2020/12/15 11:08:08;;;;;;;2.03;1.00;;;9.30;99.90;;;;;;5074597;28;20424;-61
2020/12/15 11:10:34;;;;;;;2.13;1.00;;;9.40;99.90;;;;;;5091498;28;20448;-62
2020/12/15 11:13:02;;;;;;;2.50;1.20;;;9.40;99.90;;;;;;5091345;28;20475;-62
2020/12/15 11:15:29;;;;;;;4.30;2.35;;;9.40;99.90;;;;;;5087769;28;20433;-62
2020/12/15 11:17:56;;;;;;;1.50;0.90;;;9.40;99.90;;;;;;5074936;28;20419;-62
2020/12/15 11:20:23;;;;;;;1.70;1.00;;;9.40;99.90;;;;;;5073928;28;20520;-66
2020/12/15 11:22:50;;;;;;;2.47;1.08;;;9.40;99.90;;;;;;5074420;28;20423;-66
2020/12/15 11:25:17;;;;;;;1.40;0.90;;;9.50;99.90;;;;;;5075866;28;20435;-66
2020/12/15 11:27:45;;;;;;;2.92;0.90;;;9.50;99.90;;;;;;5073680;28;20438;-66
2020/12/15 11:30:12;;;;;;;1.70;0.90;;;9.50;99.90;;;;;;5073970;28;20431;-66
2020/12/15 11:32:39;;;;;;;2.28;1.00;;;9.50;99.90;;;;;;5093310;28;20732;-66
2020/12/15 11:35:07;;;;;;;1.90;0.90;;;9.50;99.90;;;;;;5089564;28;20436;-62
2020/12/15 11:37:38;;;;;;;1.50;0.90;;;9.50;99.90;;;;;;5075584;28;20424;-62
2020/12/15 11:40:04;;;;;;;1.30;0.90;;;9.50;99.90;;;;;;5073542;28;20515;-60
2020/12/15 11:42:31;;;;;;;1.73;0.75;;;9.60;99.90;;;;;;5079439;28;20427;-58
2020/12/15 11:44:58;;;;;;;2.30;0.90;;;9.60;99.90;;;;;;5086327;28;20433;-59
2020/12/15 11:47:25;;;;;;;2.20;0.90;;;9.60;99.90;;;;;;5094867;28;20461;-59
2020/12/15 11:49:52;;;;;;;3.37;1.20;;;9.60;99.90;;;;;;5084879;28;20488;-61
2020/12/15 11:52:19;;;;;;;1.63;1.10;;;9.60;99.90;;;;;;5075541;28;20508;-64
2020/12/15 11:54:46;;;;;;;2.65;1.00;;;9.70;99.90;;;;;;5087404;28;20520;-66
2020/12/15 11:57:14;;;;;;;1.80;0.90;;;9.80;99.90;;;;;;5073851;28;20830;-59
2020/12/15 11:59:41;;;;;;;2.20;1.00;;;9.90;99.90;;;;;;5090335;28;20733;-50
2020/12/15 12:02:08;;;;;;;1.10;0.80;;;10.00;99.90;;;;;;5090615;28;20421;-51
2020/12/15 12:04:34;;;;;;;1.70;0.80;;;10.00;99.90;;;;;;5051369;28;20729;-50
2020/12/15 12:07:01;;;;;;;1.88;0.90;;;10.00;99.90;;;;;;5066256;28;20447;-51
2020/12/15 12:09:28;;;;;;;2.80;1.00;;;10.10;99.90;;;;;;5071653;28;20514;-51
2020/12/15 12:11:55;;;;;;;1.30;0.80;;;10.10;99.90;;;;;;5083817;28;20422;-49
2020/12/15 12:14:22;;;;;;;1.75;0.80;;;10.20;99.90;;;;;;5091246;28;20423;-51
2020/12/15 12:16:48;;;;;;;1.02;0.70;;;10.30;99.90;;;;;;5074079;28;20819;-50
2020/12/15 12:19:14;;;;;;;1.60;0.75;;;10.40;99.90;;;;;;5073189;28;21008;-48
2020/12/15 12:21:42;;;;;;;4.32;2.70;;;10.50;99.90;;;;;;5094169;28;20733;-49
2020/12/15 12:24:08;;;;;;;3.88;2.63;;;10.60;99.90;;;;;;5092993;28;20429;-50
2020/12/15 12:26:36;;;;;;;1.70;0.73;;;10.70;99.90;;;;;;5075803;28;20430;-50
2020/12/15 12:29:03;;;;;;;1.10;0.80;;;10.70;99.90;;;;;;5072108;28;20462;-53
2020/12/15 12:31:30;;;;;;;1.77;0.90;;;10.70;99.90;;;;;;5076751;28;20427;-53
2020/12/15 12:33:56;;;;;;;1.60;0.70;;;10.80;99.90;;;;;;5074642;28;20843;-51
2020/12/15 12:36:23;;;;;;;1.10;0.70;;;10.80;99.90;;;;;;5073955;28;20495;-52
2020/12/15 12:38:49;;;;;;;1.00;0.70;;;10.80;99.90;;;;;;5073649;28;20427;-53
2020/12/15 12:41:16;;;;;;;1.10;0.70;;;10.90;99.90;;;;;;5074884;28;20743;-54
2020/12/15 12:43:44;;;;;;;1.00;0.70;;;10.80;99.90;;;;;;5074231;28;20427;-49
2020/12/15 12:46:15;;;;;;;1.58;0.70;;;10.80;99.90;;;;;;5089444;28;20461;-52
2020/12/15 12:48:41;;;;;;;2.30;0.90;;;10.70;99.90;;;;;;5090993;28;20771;-55
2020/12/15 12:51:08;;;;;;;2.10;1.00;;;10.60;99.90;;;;;;5075414;28;20797;-51
2020/12/15 12:53:34;;;;;;;1.63;1.00;;;10.50;99.90;;;;;;5070831;28;21020;-52
2020/12/15 12:56:04;;;;;;;3.85;1.20;;;10.40;99.90;;;;;;5090724;28;20422;-56
2020/12/15 12:58:30;;;;;;;2.20;1.25;;;10.30;99.90;;;;;;5083780;28;20459;-54